createdAt,value
2022-07-28T00:00:18.706Z,13.68
2022-07-28T00:01:19.897Z,13.66
2022-07-28T00:02:19.647Z,13.68
2022-07-28T00:03:19.671Z,13.79
2022-07-28T00:04:18.741Z,13.75
2022-07-28T00:05:18.670Z,13.81
2022-07-28T00:06:21.584Z,13.80
2022-07-28T00:07:18.639Z,13.93
2022-07-28T00:08:18.633Z,14.04
2022-07-28T00:09:18.657Z,14.08
2022-07-28T00:10:18.599Z,14.13
2022-07-28T00:11:18.622Z,14.12
2022-07-28T00:12:25.101Z,14.20
2022-07-28T00:13:18.577Z,14.20
2022-07-28T00:14:18.579Z,14.26
2022-07-28T00:15:18.582Z,14.26
2022-07-28T00:16:19.155Z,14.21
2022-07-28T00:17:18.586Z,14.24
2022-07-28T00:18:18.541Z,14.17
2022-07-28T00:19:21.090Z,13.93
2022-07-28T00:20:18.547Z,13.71
2022-07-28T00:21:18.493Z,13.57
2022-07-28T00:22:18.477Z,13.51
2022-07-28T00:23:18.488Z,13.46
2022-07-28T00:24:19.087Z,13.36
2022-07-28T00:25:18.456Z,13.35
2022-07-28T00:26:18.453Z,13.44
2022-07-28T00:27:19.496Z,13.47
2022-07-28T00:28:18.409Z,13.51
2022-07-28T00:29:18.422Z,13.61
2022-07-28T00:30:18.409Z,13.63
2022-07-28T00:31:18.448Z,13.73
2022-07-28T00:32:18.370Z,13.81
2022-07-28T00:33:18.354Z,13.86
2022-07-28T00:34:18.344Z,13.87
2022-07-28T00:35:30.507Z,13.99
2022-07-28T00:36:24.588Z,14.01
2022-07-28T00:37:21.098Z,14.01
2022-07-28T00:38:19.088Z,14.02
2022-07-28T00:39:18.290Z,14.02
2022-07-28T00:40:18.325Z,13.81
2022-07-28T00:41:21.593Z,13.76
2022-07-28T00:42:19.097Z,13.59
2022-07-28T00:43:18.242Z,13.48
2022-07-28T00:44:21.109Z,13.44
2022-07-28T00:45:18.240Z,13.38
2022-07-28T00:46:18.281Z,13.29
2022-07-28T00:47:18.189Z,13.43
2022-07-28T00:48:18.213Z,13.29
2022-07-28T00:49:18.290Z,13.29
2022-07-28T00:50:18.169Z,13.46
2022-07-28T00:51:18.154Z,13.54
2022-07-28T00:52:18.163Z,13.59
2022-07-28T00:53:18.133Z,13.55
2022-07-28T00:54:25.098Z,13.62
2022-07-28T00:55:18.637Z,13.57
2022-07-28T00:56:18.106Z,13.59
2022-07-28T00:57:18.089Z,13.71
2022-07-28T00:58:18.102Z,13.79
2022-07-28T00:59:18.067Z,13.69
2022-07-28T01:00:18.063Z,13.81
2022-07-28T01:01:18.114Z,13.76
2022-07-28T01:02:18.172Z,13.80
2022-07-28T01:03:18.145Z,13.83
2022-07-28T01:04:18.239Z,13.76
2022-07-28T01:05:18.026Z,13.75
2022-07-28T01:06:19.020Z,13.71
2022-07-28T01:07:17.981Z,13.69
2022-07-28T01:08:17.975Z,13.63
2022-07-28T01:09:17.989Z,13.59
2022-07-28T01:10:17.959Z,13.63
2022-07-28T01:11:18.959Z,13.57
2022-07-28T01:12:17.942Z,13.54
2022-07-28T01:13:17.933Z,13.61
2022-07-28T01:14:18.986Z,13.66
2022-07-28T01:15:17.912Z,13.55
2022-07-28T01:16:18.315Z,13.55
2022-07-28T01:17:18.895Z,13.54
2022-07-28T01:18:17.879Z,13.54
2022-07-28T01:19:17.858Z,13.48
2022-07-28T01:20:18.126Z,13.41
2022-07-28T01:21:17.830Z,13.35
2022-07-28T01:22:17.817Z,13.29
2022-07-28T01:23:17.842Z,13.22
2022-07-28T01:24:18.060Z,13.31
2022-07-28T01:25:18.596Z,13.44
2022-07-28T01:26:17.778Z,13.50
2022-07-28T01:27:18.590Z,13.51
2022-07-28T01:28:17.866Z,13.63
2022-07-28T01:29:17.758Z,13.55
2022-07-28T01:30:18.607Z,13.68
2022-07-28T01:31:18.658Z,13.68
2022-07-28T01:32:17.730Z,13.76
2022-07-28T01:33:17.690Z,13.66
2022-07-28T01:34:17.826Z,13.71
2022-07-28T01:35:17.669Z,13.68
2022-07-28T01:36:17.673Z,13.71
2022-07-28T01:37:17.644Z,13.81
2022-07-28T01:38:17.660Z,13.80
2022-07-28T01:39:17.628Z,13.83
2022-07-28T01:40:17.622Z,13.86
2022-07-28T01:41:17.605Z,13.79
2022-07-28T01:42:18.111Z,13.83
2022-07-28T01:43:17.607Z,13.81
2022-07-28T01:44:17.831Z,13.84
2022-07-28T01:45:18.103Z,13.84
2022-07-28T01:46:17.682Z,13.80
2022-07-28T01:47:18.093Z,13.79
2022-07-28T01:48:17.538Z,13.81
2022-07-28T01:49:17.573Z,13.80
2022-07-28T01:50:17.513Z,13.68
2022-07-28T01:51:17.498Z,13.54
2022-07-28T01:52:17.495Z,13.54
2022-07-28T01:53:17.498Z,13.39
2022-07-28T01:54:17.910Z,13.39
2022-07-28T01:55:17.453Z,13.27
2022-07-28T01:56:17.443Z,13.06
2022-07-28T01:57:17.444Z,13.01
2022-07-28T01:58:17.420Z,13.06
2022-07-28T01:59:17.437Z,13.09
2022-07-28T02:00:17.421Z,13.21
2022-07-28T02:01:17.423Z,13.31
2022-07-28T02:02:17.376Z,13.21
2022-07-28T02:03:18.107Z,13.13
2022-07-28T02:04:17.541Z,12.99
2022-07-28T02:05:21.019Z,12.87
2022-07-28T02:06:17.366Z,12.96
2022-07-28T02:07:17.318Z,12.99
2022-07-28T02:08:17.318Z,13.03
2022-07-28T02:09:17.301Z,12.91
2022-07-28T02:10:17.317Z,12.96
2022-07-28T02:11:17.281Z,12.89
2022-07-28T02:12:17.269Z,12.95
2022-07-28T02:13:18.109Z,12.96
2022-07-28T02:14:17.817Z,13.10
2022-07-28T02:15:18.101Z,13.12
2022-07-28T02:16:18.181Z,13.28
2022-07-28T02:17:20.641Z,13.27
2022-07-28T02:18:17.212Z,13.29
2022-07-28T02:19:17.189Z,13.32
2022-07-28T02:20:17.191Z,13.35
2022-07-28T02:21:17.199Z,13.36
2022-07-28T02:22:17.635Z,13.32
2022-07-28T02:23:17.135Z,13.27
2022-07-28T02:24:17.602Z,13.25
2022-07-28T02:25:17.128Z,13.38
2022-07-28T02:26:17.916Z,13.28
2022-07-28T02:27:17.124Z,13.41
2022-07-28T02:28:17.100Z,13.43
2022-07-28T02:29:40.358Z,13.38
2022-07-28T02:30:18.075Z,13.48
2022-07-28T02:31:17.187Z,13.44
2022-07-28T02:32:26.902Z,13.51
2022-07-28T02:33:21.145Z,13.54
2022-07-28T02:34:18.475Z,13.48
2022-07-28T02:35:17.024Z,13.53
2022-07-28T02:36:17.016Z,13.47
2022-07-28T02:37:17.024Z,13.46
2022-07-28T02:38:17.137Z,13.44
2022-07-28T02:39:16.971Z,13.43
2022-07-28T02:40:17.604Z,13.35
2022-07-28T02:41:16.951Z,13.31
2022-07-28T02:42:16.944Z,13.31
2022-07-28T02:43:16.949Z,13.32
2022-07-28T02:44:17.273Z,13.27
2022-07-28T02:45:16.926Z,13.24
2022-07-28T02:46:17.051Z,13.28
2022-07-28T02:47:16.902Z,13.21
2022-07-28T02:48:16.887Z,13.17
2022-07-28T02:49:16.957Z,13.14
2022-07-28T02:50:16.854Z,13.14
2022-07-28T02:51:16.840Z,13.12
2022-07-28T02:52:16.877Z,12.91
2022-07-28T02:53:16.848Z,12.91
2022-07-28T02:54:17.294Z,12.79
2022-07-28T02:55:16.795Z,12.58
2022-07-28T02:56:16.789Z,12.48
2022-07-28T02:57:16.787Z,12.41
2022-07-28T02:58:16.775Z,12.31
2022-07-28T02:59:16.776Z,12.26
2022-07-28T03:00:16.754Z,12.29
2022-07-28T03:01:16.780Z,12.19
2022-07-28T03:02:16.732Z,12.15
2022-07-28T03:03:16.727Z,12.21
2022-07-28T03:04:22.158Z,12.25
2022-07-28T03:05:16.845Z,12.23
2022-07-28T03:06:16.681Z,12.29
2022-07-28T03:07:18.632Z,12.21
2022-07-28T03:08:16.665Z,12.21
2022-07-28T03:09:16.651Z,12.11
2022-07-28T03:10:16.639Z,12.13
2022-07-28T03:11:20.602Z,12.07
2022-07-28T03:12:16.642Z,12.15
2022-07-28T03:13:16.598Z,12.07
2022-07-28T03:14:16.871Z,12.11
2022-07-28T03:15:17.104Z,12.12
2022-07-28T03:16:17.154Z,12.08
2022-07-28T03:17:16.697Z,12.08
2022-07-28T03:18:16.628Z,12.13
2022-07-28T03:19:16.537Z,11.98
2022-07-28T03:20:17.583Z,12.08
2022-07-28T03:21:16.537Z,12.08
2022-07-28T03:22:16.632Z,12.15
2022-07-28T03:23:16.495Z,12.04
2022-07-28T03:24:16.820Z,11.96
2022-07-28T03:25:16.472Z,11.94
2022-07-28T03:26:17.115Z,12.03
2022-07-28T03:27:16.455Z,11.84
2022-07-28T03:28:16.631Z,11.88
2022-07-28T03:29:16.428Z,11.90
2022-07-28T03:30:17.461Z,11.87
2022-07-28T03:31:17.237Z,11.75
2022-07-28T03:32:16.395Z,11.88
2022-07-28T03:33:16.383Z,11.84
2022-07-28T03:34:16.892Z,11.72
2022-07-28T03:35:16.362Z,11.74
2022-07-28T03:36:16.342Z,11.77
2022-07-28T03:37:16.348Z,11.70
2022-07-28T03:38:17.950Z,11.72
2022-07-28T03:39:16.346Z,11.79
2022-07-28T03:40:16.298Z,11.78
2022-07-28T03:41:19.113Z,11.78
2022-07-28T03:42:31.110Z,11.77
2022-07-28T03:43:16.307Z,11.75
2022-07-28T03:44:17.255Z,11.70
2022-07-28T03:45:18.103Z,11.77
2022-07-28T03:46:16.264Z,11.75
2022-07-28T03:47:16.231Z,11.75
2022-07-28T03:48:16.238Z,11.69
2022-07-28T03:49:16.310Z,11.67
2022-07-28T03:50:16.196Z,11.69
2022-07-28T03:51:16.175Z,11.60
2022-07-28T03:52:16.180Z,11.56
2022-07-28T03:53:16.151Z,11.62
2022-07-28T03:54:16.713Z,11.59
2022-07-28T03:55:19.617Z,11.51
2022-07-28T03:56:16.131Z,11.54
2022-07-28T03:57:16.116Z,11.49
2022-07-28T03:58:16.118Z,11.56
2022-07-28T03:59:16.089Z,11.62
2022-07-28T04:00:16.111Z,11.60
2022-07-28T04:01:16.176Z,11.74
2022-07-28T04:02:16.695Z,11.78
2022-07-28T04:03:22.644Z,11.94
2022-07-28T04:04:17.553Z,11.93
2022-07-28T04:05:16.026Z,11.96
2022-07-28T04:06:18.102Z,12.11
2022-07-28T04:07:16.026Z,12.11
2022-07-28T04:08:15.995Z,12.07
2022-07-28T04:09:15.982Z,12.11
2022-07-28T04:10:16.995Z,12.15
2022-07-28T04:11:15.974Z,12.11
2022-07-28T04:12:15.953Z,12.07
2022-07-28T04:13:15.934Z,11.97
2022-07-28T04:14:19.086Z,12.05
2022-07-28T04:15:16.623Z,12.03
2022-07-28T04:16:16.040Z,12.00
2022-07-28T04:17:16.916Z,12.05
2022-07-28T04:18:15.868Z,12.12
2022-07-28T04:19:15.898Z,12.11
2022-07-28T04:20:15.857Z,12.12
2022-07-28T04:21:15.853Z,12.08
2022-07-28T04:22:15.848Z,12.00
2022-07-28T04:23:15.835Z,12.03
2022-07-28T04:24:16.042Z,11.97
2022-07-28T04:25:15.831Z,11.97
2022-07-28T04:26:15.817Z,11.94
2022-07-28T04:27:22.608Z,11.93
2022-07-28T04:28:15.827Z,11.98
2022-07-28T04:29:15.798Z,12.11
2022-07-28T04:30:16.745Z,12.04
2022-07-28T04:31:18.759Z,12.05
2022-07-28T04:32:15.728Z,12.07
2022-07-28T04:33:15.714Z,12.08
2022-07-28T04:34:16.724Z,12.07
2022-07-28T04:35:17.673Z,12.07
2022-07-28T04:36:15.690Z,12.03
2022-07-28T04:37:15.662Z,12.05
2022-07-28T04:38:15.660Z,12.13
2022-07-28T04:39:18.617Z,12.25
2022-07-28T04:40:15.661Z,12.29
2022-07-28T04:41:15.625Z,12.23
2022-07-28T04:42:15.620Z,12.37
2022-07-28T04:43:15.604Z,12.51
2022-07-28T04:44:15.956Z,12.52
2022-07-28T04:45:15.576Z,12.48
2022-07-28T04:46:15.663Z,12.59
2022-07-28T04:47:15.560Z,12.59
2022-07-28T04:48:22.104Z,12.55
2022-07-28T04:49:15.628Z,12.56
2022-07-28T04:50:15.518Z,12.71
2022-07-28T04:51:15.534Z,12.73
2022-07-28T04:52:15.516Z,12.73
2022-07-28T04:53:16.113Z,12.73
2022-07-28T04:54:16.021Z,12.80
2022-07-28T04:55:15.461Z,12.89
2022-07-28T04:56:15.489Z,12.89
2022-07-28T04:57:15.459Z,12.88
2022-07-28T04:58:16.119Z,12.84
2022-07-28T04:59:15.417Z,12.80
2022-07-28T05:00:15.415Z,12.80
2022-07-28T05:01:15.482Z,12.88
2022-07-28T05:02:15.408Z,12.85
2022-07-28T05:03:15.411Z,12.87
2022-07-28T05:04:15.651Z,12.84
2022-07-28T05:05:15.399Z,12.87
2022-07-28T05:06:15.366Z,12.84
2022-07-28T05:07:18.120Z,12.87
2022-07-28T05:08:15.345Z,12.87
2022-07-28T05:09:16.343Z,12.98
2022-07-28T05:10:15.298Z,12.94
2022-07-28T05:11:17.169Z,12.94
2022-07-28T05:12:15.280Z,12.94
2022-07-28T05:13:15.272Z,12.91
2022-07-28T05:14:15.963Z,12.99
2022-07-28T05:15:15.240Z,13.12
2022-07-28T05:16:15.265Z,13.09
2022-07-28T05:17:15.227Z,13.06
2022-07-28T05:18:18.116Z,13.04
2022-07-28T05:19:16.179Z,13.01
2022-07-28T05:20:16.119Z,13.04
2022-07-28T05:21:22.392Z,13.06
2022-07-28T05:22:15.171Z,12.98
2022-07-28T05:23:15.157Z,13.09
2022-07-28T05:24:15.541Z,13.07
2022-07-28T05:25:15.163Z,13.07
2022-07-28T05:26:15.140Z,13.12
2022-07-28T05:27:15.130Z,13.24
2022-07-28T05:28:15.110Z,13.25
2022-07-28T05:29:15.622Z,13.24
2022-07-28T05:30:15.144Z,13.36
2022-07-28T05:31:15.162Z,13.43
2022-07-28T05:32:17.542Z,13.47
2022-07-28T05:33:15.613Z,13.61
2022-07-28T05:34:15.493Z,13.59
2022-07-28T05:35:15.025Z,13.62
2022-07-28T05:36:15.031Z,13.65
2022-07-28T05:37:15.041Z,13.73
2022-07-28T05:38:14.999Z,13.79
2022-07-28T05:39:17.723Z,13.83
2022-07-28T05:40:14.989Z,13.69
2022-07-28T05:41:15.001Z,13.69
2022-07-28T05:42:14.974Z,13.79
2022-07-28T05:43:35.952Z,13.79
2022-07-28T05:44:15.289Z,13.81
2022-07-28T05:45:17.022Z,13.84
2022-07-28T05:46:14.970Z,13.84
2022-07-28T05:47:14.912Z,13.83
2022-07-28T05:48:14.882Z,13.86
2022-07-28T05:49:14.967Z,13.73
2022-07-28T05:50:15.617Z,13.75
2022-07-28T05:51:14.859Z,13.66
2022-07-28T05:52:36.616Z,13.61
2022-07-28T05:53:14.839Z,13.53
2022-07-28T05:54:15.114Z,13.54
2022-07-28T05:55:14.828Z,13.50
2022-07-28T05:56:29.620Z,13.51
2022-07-28T05:57:15.254Z,13.50
2022-07-28T05:58:14.783Z,13.51
2022-07-28T05:59:14.778Z,13.61
2022-07-28T06:00:15.169Z,13.71
2022-07-28T06:01:14.877Z,13.76
2022-07-28T06:02:15.646Z,13.83
2022-07-28T06:03:41.517Z,13.88
2022-07-28T06:04:29.255Z,13.96
2022-07-28T06:05:15.720Z,13.91
2022-07-28T06:06:17.040Z,13.98
2022-07-28T06:07:14.680Z,14.04
2022-07-28T06:08:14.679Z,13.94
2022-07-28T06:09:14.652Z,14.17
2022-07-28T06:10:14.666Z,14.27
2022-07-28T06:11:22.099Z,14.27
2022-07-28T06:12:15.642Z,14.35
2022-07-28T06:13:14.612Z,14.41
2022-07-28T06:14:15.138Z,14.46
2022-07-28T06:15:14.600Z,14.54
2022-07-28T06:16:14.701Z,14.53
2022-07-28T06:17:14.577Z,14.56
2022-07-28T06:18:14.574Z,14.61
2022-07-28T06:19:14.549Z,14.67
2022-07-28T06:20:14.535Z,14.74
2022-07-28T06:21:14.533Z,14.75
2022-07-28T06:22:14.644Z,14.83
2022-07-28T06:23:15.132Z,14.85
2022-07-28T06:24:15.008Z,14.93
2022-07-28T06:25:17.125Z,14.94
2022-07-28T06:26:15.120Z,15.00
2022-07-28T06:27:14.502Z,14.93
2022-07-28T06:28:15.119Z,15.01
2022-07-28T06:29:17.123Z,15.01
2022-07-28T06:30:14.425Z,15.00
2022-07-28T06:31:15.512Z,15.00
2022-07-28T06:32:14.650Z,15.11
2022-07-28T06:33:17.267Z,15.13
2022-07-28T06:34:14.863Z,15.01
2022-07-28T06:35:17.112Z,15.12
2022-07-28T06:36:14.653Z,15.16
2022-07-28T06:37:14.372Z,15.22
2022-07-28T06:38:14.344Z,15.18
2022-07-28T06:39:14.332Z,15.20
2022-07-28T06:40:14.329Z,15.13
2022-07-28T06:41:14.313Z,15.19
2022-07-28T06:42:14.325Z,15.20
2022-07-28T06:43:14.292Z,15.09
2022-07-28T06:44:14.816Z,15.16
2022-07-28T06:45:19.575Z,15.18
2022-07-28T06:46:16.234Z,15.18
2022-07-28T06:47:14.322Z,15.25
2022-07-28T06:48:14.259Z,15.20
2022-07-28T06:49:14.618Z,15.30
2022-07-28T06:50:25.324Z,15.20
2022-07-28T06:51:16.127Z,15.18
2022-07-28T06:52:14.209Z,15.16
2022-07-28T06:53:14.196Z,15.23
2022-07-28T06:54:14.896Z,15.23
2022-07-28T06:55:14.159Z,15.22
2022-07-28T06:56:17.127Z,15.28
2022-07-28T06:57:15.118Z,15.40
2022-07-28T06:58:14.151Z,15.46
2022-07-28T06:59:14.470Z,15.55
2022-07-28T07:00:14.152Z,15.51
2022-07-28T07:01:14.768Z,15.51
2022-07-28T07:02:14.632Z,15.62
2022-07-28T07:03:14.097Z,15.67
2022-07-28T07:04:14.358Z,15.55
2022-07-28T07:05:14.185Z,15.58
2022-07-28T07:06:14.041Z,15.66
2022-07-28T07:07:17.018Z,15.68
2022-07-28T07:08:14.022Z,15.62
2022-07-28T07:09:14.025Z,15.73
2022-07-28T07:10:13.997Z,15.70
2022-07-28T07:11:13.998Z,15.76
2022-07-28T07:12:13.979Z,15.74
2022-07-28T07:13:14.113Z,15.81
2022-07-28T07:14:20.629Z,15.85
2022-07-28T07:15:14.175Z,15.85
2022-07-28T07:16:13.979Z,15.89
2022-07-28T07:17:13.930Z,15.91
2022-07-28T07:18:14.164Z,15.95
2022-07-28T07:19:15.976Z,15.96
2022-07-28T07:20:13.909Z,15.91
2022-07-28T07:21:13.884Z,15.92
2022-07-28T07:22:13.889Z,15.99
2022-07-28T07:23:13.862Z,16.06
2022-07-28T07:24:14.214Z,16.13
2022-07-28T07:25:14.164Z,16.16
2022-07-28T07:26:14.644Z,16.18
2022-07-28T07:27:14.630Z,16.17
2022-07-28T07:28:13.796Z,16.26
2022-07-28T07:29:14.618Z,16.27
2022-07-28T07:30:16.622Z,16.26
2022-07-28T07:31:13.857Z,16.37
2022-07-28T07:32:13.755Z,16.33
2022-07-28T07:33:13.749Z,16.29
2022-07-28T07:34:15.008Z,16.30
2022-07-28T07:35:13.725Z,16.41
2022-07-28T07:36:14.632Z,16.41
2022-07-28T07:37:13.823Z,16.45
2022-07-28T07:38:13.714Z,16.52
2022-07-28T07:39:20.623Z,16.54
2022-07-28T07:40:13.666Z,16.57
2022-07-28T07:41:13.658Z,16.72
2022-07-28T07:42:28.642Z,16.80
2022-07-28T07:43:13.651Z,16.75
2022-07-28T07:44:14.004Z,16.73
2022-07-28T07:45:13.606Z,16.84
2022-07-28T07:46:14.206Z,16.87
2022-07-28T07:47:13.603Z,17.00
2022-07-28T07:48:13.686Z,16.96
2022-07-28T07:49:45.083Z,17.02
2022-07-28T07:50:14.554Z,16.91
2022-07-28T07:51:15.670Z,16.88
2022-07-28T07:52:14.144Z,16.96
2022-07-28T07:53:14.261Z,16.98
2022-07-28T07:54:16.519Z,16.91
2022-07-28T07:55:14.131Z,17.00
2022-07-28T07:56:14.137Z,17.02
2022-07-28T07:57:16.130Z,17.06
2022-07-28T07:58:14.159Z,17.10
2022-07-28T07:59:14.168Z,17.03
2022-07-28T08:00:28.790Z,17.10
2022-07-28T08:01:14.468Z,17.12
2022-07-28T08:02:16.241Z,17.05
2022-07-28T08:03:16.134Z,17.03
2022-07-28T08:04:15.578Z,17.06
2022-07-28T08:05:16.140Z,17.17
2022-07-28T08:06:16.145Z,17.17
2022-07-28T08:07:16.133Z,17.20
2022-07-28T08:08:16.137Z,17.25
2022-07-28T08:09:16.153Z,17.28
2022-07-28T08:10:15.396Z,17.27
2022-07-28T08:11:18.665Z,17.32
2022-07-28T08:12:15.478Z,17.35
2022-07-28T08:13:16.136Z,17.25
2022-07-28T08:14:16.740Z,17.25
2022-07-28T08:15:16.150Z,17.25
2022-07-28T08:16:16.276Z,17.20
2022-07-28T08:17:16.334Z,17.15
2022-07-28T08:18:13.251Z,17.10
2022-07-28T08:19:13.254Z,17.05
2022-07-28T08:20:13.225Z,17.10
2022-07-28T08:21:13.263Z,17.14
2022-07-28T08:22:13.209Z,17.20
2022-07-28T08:23:13.210Z,17.28
2022-07-28T08:24:13.508Z,17.30
2022-07-28T08:25:17.134Z,17.38
2022-07-28T08:26:13.156Z,17.42
2022-07-28T08:27:16.134Z,17.47
2022-07-28T08:28:13.162Z,17.43
2022-07-28T08:29:13.121Z,17.55
2022-07-28T08:30:13.122Z,17.53
2022-07-28T08:31:16.756Z,17.68
2022-07-28T08:32:13.644Z,17.76
2022-07-28T08:33:13.105Z,17.79
2022-07-28T08:34:26.358Z,17.87
2022-07-28T08:35:35.871Z,17.89
2022-07-28T08:36:13.061Z,17.89
2022-07-28T08:37:19.635Z,17.96
2022-07-28T08:38:13.046Z,17.92
2022-07-28T08:39:13.027Z,17.71
2022-07-28T08:40:13.014Z,17.62
2022-07-28T08:41:12.994Z,17.55
2022-07-28T08:42:13.000Z,17.68
2022-07-28T08:43:12.974Z,17.70
2022-07-28T08:44:13.232Z,17.74
2022-07-28T08:45:12.945Z,17.68
2022-07-28T08:46:13.293Z,17.81
2022-07-28T08:47:12.930Z,17.79
2022-07-28T08:48:12.920Z,17.91
2022-07-28T08:49:14.916Z,17.94
2022-07-28T08:50:12.881Z,17.94
2022-07-28T08:51:12.922Z,17.91
2022-07-28T08:52:13.646Z,18.02
2022-07-28T08:53:12.864Z,18.10
2022-07-28T08:54:13.191Z,18.05
2022-07-28T08:55:17.621Z,18.16
2022-07-28T08:56:13.853Z,18.01
2022-07-28T08:57:12.823Z,18.02
2022-07-28T08:58:12.815Z,18.16
2022-07-28T08:59:12.800Z,18.09
2022-07-28T09:00:12.788Z,18.16
2022-07-28T09:01:12.783Z,18.10
2022-07-28T09:02:12.870Z,18.17
2022-07-28T09:03:12.846Z,18.25
2022-07-28T09:04:13.076Z,18.23
2022-07-28T09:05:12.745Z,18.35
2022-07-28T09:06:12.719Z,18.39
2022-07-28T09:07:12.740Z,18.35
2022-07-28T09:08:12.704Z,18.35
2022-07-28T09:09:12.693Z,18.35
2022-07-28T09:10:12.676Z,18.32
2022-07-28T09:11:12.669Z,18.35
2022-07-28T09:12:12.686Z,18.39
2022-07-28T09:13:13.320Z,18.41
2022-07-28T09:14:12.975Z,18.59
2022-07-28T09:15:12.622Z,18.51
2022-07-28T09:16:12.656Z,18.53
2022-07-28T09:17:12.596Z,18.46
2022-07-28T09:18:12.624Z,18.42
2022-07-28T09:19:12.586Z,18.57
2022-07-28T09:20:12.567Z,18.62
2022-07-28T09:21:12.588Z,18.83
2022-07-28T09:22:12.546Z,18.79
2022-07-28T09:23:41.854Z,18.68
2022-07-28T09:24:13.813Z,18.64
2022-07-28T09:25:13.140Z,18.66
2022-07-28T09:26:12.954Z,18.71
2022-07-28T09:27:12.519Z,18.71
2022-07-28T09:28:12.485Z,18.82
2022-07-28T09:29:13.149Z,18.94
2022-07-28T09:30:12.462Z,18.96
2022-07-28T09:31:12.722Z,18.93
2022-07-28T09:32:12.435Z,18.99
2022-07-28T09:33:12.426Z,19.06
2022-07-28T09:34:13.718Z,19.13
2022-07-28T09:35:12.404Z,19.15
2022-07-28T09:36:12.397Z,19.24
2022-07-28T09:37:12.671Z,19.30
2022-07-28T09:38:12.372Z,19.38
2022-07-28T09:39:12.365Z,19.38
2022-07-28T09:40:12.345Z,19.49
2022-07-28T09:41:12.347Z,19.53
2022-07-28T09:42:12.323Z,19.64
2022-07-28T09:43:12.389Z,19.76
2022-07-28T09:44:12.761Z,19.72
2022-07-28T09:45:23.077Z,19.72
2022-07-28T09:46:13.477Z,19.64
2022-07-28T09:47:19.422Z,19.57
2022-07-28T09:48:12.621Z,19.50
2022-07-28T09:49:12.771Z,19.64
2022-07-28T09:50:15.141Z,19.75
2022-07-28T09:51:13.153Z,19.79
2022-07-28T09:52:12.254Z,19.90
2022-07-28T09:53:12.206Z,19.95
2022-07-28T09:54:12.722Z,20.01
2022-07-28T09:55:12.188Z,20.07
2022-07-28T09:56:13.187Z,19.97
2022-07-28T09:57:12.162Z,19.90
2022-07-28T09:58:12.179Z,19.94
2022-07-28T09:59:12.158Z,19.90
2022-07-28T10:00:12.128Z,19.90
2022-07-28T10:01:12.323Z,20.07
2022-07-28T10:02:12.265Z,20.12
2022-07-28T10:03:12.182Z,20.26
2022-07-28T10:04:12.125Z,20.33
2022-07-28T10:05:12.082Z,20.44
2022-07-28T10:06:12.068Z,20.42
2022-07-28T10:07:12.055Z,20.26
2022-07-28T10:08:12.049Z,20.23
2022-07-28T10:09:12.067Z,20.19
2022-07-28T10:10:12.043Z,20.40
2022-07-28T10:11:12.019Z,20.51
2022-07-28T10:12:12.009Z,20.58
2022-07-28T10:13:11.997Z,20.75
2022-07-28T10:14:12.267Z,20.81
2022-07-28T10:15:12.042Z,20.90
2022-07-28T10:16:12.047Z,21.09
2022-07-28T10:17:11.955Z,21.27
2022-07-28T10:18:33.663Z,21.24
2022-07-28T10:19:11.923Z,21.37
2022-07-28T10:20:11.915Z,21.52
2022-07-28T10:21:11.923Z,21.59
2022-07-28T10:22:11.909Z,21.67
2022-07-28T10:23:11.876Z,21.68
2022-07-28T10:24:12.377Z,21.81
2022-07-28T10:25:11.855Z,21.86
2022-07-28T10:26:13.206Z,21.83
2022-07-28T10:27:12.658Z,21.86
2022-07-28T10:28:11.856Z,21.74
2022-07-28T10:29:14.650Z,21.82
2022-07-28T10:30:11.803Z,21.83
2022-07-28T10:31:11.895Z,21.90
2022-07-28T10:32:12.652Z,21.96
2022-07-28T10:33:11.764Z,21.83
2022-07-28T10:34:16.018Z,21.77
2022-07-28T10:35:11.746Z,21.42
2022-07-28T10:36:12.670Z,21.22
2022-07-28T10:37:11.720Z,21.00
2022-07-28T10:38:11.753Z,20.98
2022-07-28T10:39:12.658Z,21.22
2022-07-28T10:40:11.752Z,21.43
2022-07-28T10:41:11.681Z,21.06
2022-07-28T10:42:14.653Z,20.79
2022-07-28T10:43:27.659Z,20.93
2022-07-28T10:44:11.960Z,20.81
2022-07-28T10:45:12.210Z,21.05
2022-07-28T10:46:15.881Z,21.33
2022-07-28T10:47:18.484Z,21.49
2022-07-28T10:48:13.158Z,21.75
2022-07-28T10:49:12.241Z,21.83
2022-07-28T10:50:12.162Z,21.51
2022-07-28T10:51:11.582Z,21.24
2022-07-28T10:52:19.906Z,21.37
2022-07-28T10:53:12.545Z,21.59
2022-07-28T10:54:11.672Z,21.64
2022-07-28T10:55:12.532Z,21.85
2022-07-28T10:56:12.158Z,22.04
2022-07-28T10:57:11.515Z,22.19
2022-07-28T10:58:12.389Z,22.27
2022-07-28T10:59:11.487Z,22.31
2022-07-28T11:00:13.632Z,22.59
2022-07-28T11:01:26.708Z,22.61
2022-07-28T11:02:12.576Z,22.78
2022-07-28T11:03:13.540Z,22.89
2022-07-28T11:04:11.600Z,22.75
2022-07-28T11:05:11.426Z,22.69
2022-07-28T11:06:11.697Z,22.63
2022-07-28T11:07:12.166Z,22.75
2022-07-28T11:08:11.388Z,22.76
2022-07-28T11:09:11.390Z,22.76
2022-07-28T11:10:11.384Z,22.91
2022-07-28T11:11:13.393Z,22.88
2022-07-28T11:12:11.380Z,22.93
2022-07-28T11:13:14.391Z,22.88
2022-07-28T11:14:11.722Z,22.89
2022-07-28T11:15:18.544Z,22.93
2022-07-28T11:16:12.325Z,22.89
2022-07-28T11:17:12.216Z,22.49
2022-07-28T11:18:11.280Z,22.26
2022-07-28T11:19:40.532Z,22.21
2022-07-28T11:20:26.124Z,22.24
2022-07-28T11:21:16.507Z,22.45
2022-07-28T11:22:11.262Z,22.57
2022-07-28T11:23:12.156Z,22.60
2022-07-28T11:24:12.931Z,22.61
2022-07-28T11:25:20.270Z,22.56
2022-07-28T11:26:12.212Z,22.33
2022-07-28T11:27:12.174Z,22.41
2022-07-28T11:28:11.186Z,22.56
2022-07-28T11:29:11.168Z,22.81
2022-07-28T11:30:11.674Z,23.01
2022-07-28T11:31:11.712Z,23.25
2022-07-28T11:32:11.126Z,23.26
2022-07-28T11:33:11.146Z,23.34
2022-07-28T11:34:11.319Z,23.44
2022-07-28T11:35:11.113Z,23.38
2022-07-28T11:36:11.105Z,23.53
2022-07-28T11:37:15.060Z,23.47
2022-07-28T11:38:11.112Z,23.14
2022-07-28T11:39:11.053Z,22.99
2022-07-28T11:40:11.051Z,23.11
2022-07-28T11:41:11.197Z,23.16
2022-07-28T11:42:12.097Z,23.06
2022-07-28T11:43:11.016Z,22.57
2022-07-28T11:44:11.365Z,22.59
2022-07-28T11:45:13.678Z,22.89
2022-07-28T11:46:11.924Z,22.93
2022-07-28T11:47:11.988Z,22.84
2022-07-28T11:48:10.952Z,22.64
2022-07-28T11:49:14.903Z,22.66
2022-07-28T11:50:11.989Z,22.42
2022-07-28T11:51:13.666Z,22.42
2022-07-28T11:52:10.961Z,22.61
2022-07-28T11:53:10.893Z,22.66
2022-07-28T11:54:10.975Z,22.63
2022-07-28T11:55:10.881Z,22.81
2022-07-28T11:56:10.922Z,22.89
2022-07-28T11:57:13.832Z,22.75
2022-07-28T11:58:11.675Z,22.99
2022-07-28T11:59:10.835Z,23.14
2022-07-28T12:00:10.837Z,23.44
2022-07-28T12:01:13.346Z,23.64
2022-07-28T12:02:10.892Z,23.72
2022-07-28T12:03:11.684Z,23.74
2022-07-28T12:04:10.787Z,23.44
2022-07-28T12:05:10.931Z,23.41
2022-07-28T12:06:10.763Z,23.44
2022-07-28T12:07:10.755Z,23.32
2022-07-28T12:08:10.768Z,23.35
2022-07-28T12:09:10.726Z,23.34
2022-07-28T12:10:10.727Z,23.22
2022-07-28T12:11:10.704Z,23.18
2022-07-28T12:12:10.728Z,23.19
2022-07-28T12:13:10.687Z,23.19
2022-07-28T12:14:10.715Z,23.38
2022-07-28T12:15:10.664Z,23.01
2022-07-28T12:16:10.710Z,23.03
2022-07-28T12:17:10.720Z,23.23
2022-07-28T12:18:10.628Z,23.44
2022-07-28T12:19:10.632Z,23.50
2022-07-28T12:20:14.027Z,23.64
2022-07-28T12:21:10.602Z,23.97
2022-07-28T12:22:12.583Z,24.21
2022-07-28T12:23:11.583Z,24.14
2022-07-28T12:24:10.553Z,23.92
2022-07-28T12:25:13.984Z,23.94
2022-07-28T12:26:10.552Z,24.04
2022-07-28T12:27:10.532Z,23.90
2022-07-28T12:28:10.582Z,23.41
2022-07-28T12:29:11.689Z,22.86
2022-07-28T12:30:10.556Z,22.81
2022-07-28T12:31:10.496Z,22.79
2022-07-28T12:32:10.797Z,23.01
2022-07-28T12:33:10.471Z,23.29
2022-07-28T12:34:10.636Z,23.45
2022-07-28T12:35:10.450Z,23.54
2022-07-28T12:36:10.439Z,23.56
2022-07-28T12:37:10.449Z,23.31
2022-07-28T12:38:10.420Z,23.62
2022-07-28T12:39:13.150Z,23.89
2022-07-28T12:40:10.519Z,24.04
2022-07-28T12:41:11.189Z,23.87
2022-07-28T12:42:10.375Z,23.79
2022-07-28T12:43:11.177Z,24.02
2022-07-28T12:44:11.501Z,24.37
2022-07-28T12:45:13.186Z,24.79
2022-07-28T12:46:10.414Z,25.01
2022-07-28T12:47:10.732Z,25.39
2022-07-28T12:48:10.310Z,25.31
2022-07-28T12:49:10.336Z,24.92
2022-07-28T12:50:10.377Z,25.07
2022-07-28T12:51:11.190Z,25.11
2022-07-28T12:52:10.294Z,24.55